Time;durP1;ratioP1;P1;durP2;ratioP2;P2;SDS_P1;SDS_P2;PMS_P1;PMS_P2;Temp;Humidity;BMP_temperature;BMP_pressure;BME280_temperature;BME280_humidity;BME280_pressure;Samples;Min_cycle;Max_cycle;Signal;HPM_P1;HPM_P2
2022/03/27 00:02:18;;;;;;;26.37;10.00;;;;;;;8.65;44.04;95801.44;5073583;28;20205;-80
2022/03/27 00:04:44;;;;;;;18.10;7.87;;;;;;;8.55;43.79;95784.31;5074175;28;20250;-80
2022/03/27 00:07:09;;;;;;;21.83;8.20;;;;;;;8.42;43.62;95763.88;5073444;28;20548;-81
2022/03/27 00:09:35;;;;;;;29.43;8.40;;;;;;;8.60;44.27;95795.09;5074380;28;20185;-81
2022/03/27 00:12:00;;;;;;;22.23;7.37;;;;;;;8.20;44.43;95738.44;5074738;28;20198;-81
2022/03/27 00:14:25;;;;;;;18.47;7.87;;;;;;;8.49;44.61;95788.44;5074002;28;20228;-81
2022/03/27 00:16:51;;;;;;;17.53;7.17;;;;;;;8.11;44.52;95726.38;5055946;28;20174;-80
2022/03/27 00:19:16;;;;;;;22.23;8.73;;;;;;;8.03;44.29;95715.94;5073740;28;20224;-81
2022/03/27 00:21:44;;;;;;;22.53;8.37;;;;;;;8.20;45.00;95756.81;5074011;28;20543;-81
2022/03/27 00:24:09;;;;;;;30.10;10.60;;;;;;;7.84;45.19;95714.56;5074278;28;20182;-81
2022/03/27 00:26:35;;;;;;;48.47;18.53;;;;;;;8.24;45.59;95784.31;5055742;28;20197;-80
2022/03/27 00:29:00;;;;;;;36.43;14.87;;;;;;;8.19;46.25;95787.47;5073800;28;20174;-81
2022/03/27 00:31:26;;;;;;;45.67;20.30;;;;;;;7.86;46.37;95729.16;5073088;28;20205;-80
2022/03/27 00:33:51;;;;;;;43.97;17.90;;;;;;;8.03;46.81;95781.50;5072285;28;20221;-81
2022/03/27 00:36:17;;;;;;;42.30;17.93;;;;;;;8.02;46.81;95779.84;5071574;28;20174;-81
2022/03/27 00:38:46;;;;;;;54.90;20.47;;;;;;;8.00;46.75;95774.78;5071661;28;20182;-81
2022/03/27 00:41:12;;;;;;;55.33;22.20;;;;;;;7.89;47.02;95765.47;5052133;28;20303;-81
2022/03/27 00:43:39;;;;;;;59.53;22.10;;;;;;;7.67;46.96;95737.44;5071799;28;20649;-80
2022/03/27 00:46:06;;;;;;;52.23;19.87;;;;;;;7.85;47.37;95760.78;5065837;28;20206;-81
2022/03/27 00:48:34;;;;;;;44.50;20.40;;;;;;;7.77;47.98;95761.63;5073573;28;20178;-81
2022/03/27 00:50:59;;;;;;;58.57;23.97;;;;;;;7.58;48.13;95749.75;5073179;28;20219;-81
2022/03/27 00:53:25;;;;;;;53.30;21.70;;;;;;;7.61;48.31;95756.44;5072920;28;20190;-81
2022/03/27 00:55:51;;;;;;;53.67;22.10;;;;;;;7.37;48.48;95727.72;5073222;28;20254;-81
2022/03/27 00:58:17;;;;;;;52.17;22.30;;;;;;;7.43;48.41;95737.53;5072506;28;20319;-80
2022/03/27 01:01:07;;;;;;;53.17;21.13;;;;;;;7.57;48.25;95758.59;5072946;28;20226;-80
2022/03/27 01:03:32;;;;;;;52.60;20.40;;;;;;;7.34;48.74;95725.44;5071608;28;20269;-80
2022/03/27 01:05:58;;;;;;;42.10;17.27;;;;;;;7.54;49.06;95758.91;5070097;28;20273;-81
2022/03/27 01:11:21;;;;;;;47.23;19.17;;;;;;;7.45;49.12;95748.63;5073931;28;20169;-81
2022/03/27 01:13:48;;;;;;;41.17;17.30;;;;;;;7.46;48.86;95745.84;5073662;28;20174;-81
2022/03/27 01:16:38;;;;;;;42.47;14.47;;;;;;;7.41;48.80;95747.34;5071491;28;20175;-80
2022/03/27 01:19:06;;;;;;;29.70;11.43;;;;;;;7.37;47.84;95754.72;5072234;28;20170;-84
2022/03/27 01:21:38;;;;;;;27.50;11.50;;;;;;;7.37;48.07;95756.53;5053730;28;20182;-83
2022/03/27 01:24:06;;;;;;;22.67;10.60;;;;;;;7.38;47.11;95764.22;5046655;28;20553;-82
2022/03/27 01:26:32;;;;;;;28.00;9.90;;;;;;;7.37;47.12;95752.09;5077429;28;20194;-82
2022/03/27 01:28:57;;;;;;;25.60;10.93;;;;;;;7.23;46.87;95733.66;5074436;28;20159;-82
2022/03/27 01:31:23;;;;;;;23.93;9.90;;;;;;;7.37;47.01;95748.66;5073293;28;20158;-82
2022/03/27 01:33:49;;;;;;;28.23;10.10;;;;;;;7.36;46.93;95747.03;5073074;28;20214;-82
2022/03/27 01:36:34;;;;;;;29.67;10.50;;;;;;;7.24;46.94;95745.78;5073170;28;20288;-82
2022/03/27 01:39:01;;;;;;;33.03;7.33;;;;;;;6.93;46.16;95699.38;5059924;28;20182;-83
2022/03/27 01:41:26;;;;;;;28.37;8.63;;;;;;;7.00;46.99;95723.91;5054651;28;20256;-83
2022/03/27 01:43:52;;;;;;;18.20;7.87;;;;;;;6.75;46.29;95683.88;5072507;28;20212;-82
2022/03/27 01:46:18;;;;;;;20.17;9.73;;;;;;;6.58;46.45;95661.34;5072113;28;20206;-82
2022/03/27 01:48:44;;;;;;;17.87;8.10;;;;;;;6.67;46.74;95680.44;5054235;28;20173;-82
2022/03/27 01:51:10;;;;;;;21.33;9.20;;;;;;;7.07;46.68;95748.44;5071492;28;20192;-82
2022/03/27 01:53:39;;;;;;;21.07;8.30;;;;;;;6.73;46.80;95708.59;5072084;28;20178;-82
2022/03/27 01:56:07;;;;;;;25.93;8.60;;;;;;;6.92;46.83;95750.06;5054469;28;20186;-82
2022/03/27 01:58:36;;;;;;;29.80;11.27;;;;;;;6.54;47.43;95690.63;5072715;28;20163;-82
2022/03/27 02:01:01;;;;;;;24.57;10.83;;;;;;;6.75;47.08;95714.44;5072641;28;20171;-82
2022/03/27 02:03:28;;;;;;;26.07;11.53;;;;;;;6.47;46.91;95672.16;5072931;28;20163;-82
2022/03/27 02:05:57;;;;;;;28.33;12.80;;;;;;;6.51;47.11;95681.28;5072444;28;20198;-82
2022/03/27 02:08:23;;;;;;;31.83;14.13;;;;;;;6.90;47.22;95749.44;5054698;28;20253;-82
2022/03/27 02:10:50;;;;;;;42.10;14.43;;;;;;;6.26;47.91;95662.19;5072540;28;20159;-82
2022/03/27 02:13:18;;;;;;;25.23;10.10;;;;;;;6.82;47.70;95749.47;5071003;28;20185;-82
2022/03/27 02:15:46;;;;;;;31.43;11.33;;;;;;;6.52;47.51;95708.25;5072008;28;20174;-83
2022/03/27 02:18:12;;;;;;;27.77;11.60;;;;;;;6.78;47.76;95748.16;5071685;28;20187;-83
2022/03/27 02:20:39;;;;;;;34.73;12.00;;;;;;;6.37;47.68;95690.63;5069831;28;20201;-83
2022/03/27 02:23:06;;;;;;;24.37;9.50;;;;;;;6.31;47.39;95693.88;5071413;28;20270;-82
2022/03/27 02:25:32;;;;;;;35.67;11.40;;;;;;;6.68;47.57;95753.53;5069742;28;20178;-82
2022/03/27 02:27:58;;;;;;;23.20;10.70;;;;;;;6.29;47.83;95708.13;5071301;28;20189;-82
2022/03/27 02:30:23;;;;;;;34.57;11.70;;;;;;;6.48;48.48;95754.06;5071923;28;20257;-82
2022/03/27 02:32:49;;;;;;;33.73;14.00;;;;;;;6.21;48.82;95726.41;5072430;28;20253;-82
2022/03/27 02:35:14;;;;;;;38.80;17.10;;;;;;;5.82;49.02;95671.28;5071973;28;20226;-83
2022/03/27 02:37:40;;;;;;;34.97;14.07;;;;;;;6.31;49.20;95761.06;5072619;28;20194;-82
2022/03/27 02:40:06;;;;;;;45.73;16.27;;;;;;;6.29;49.17;95766.47;5072327;28;20159;-82
2022/03/27 02:42:32;;;;;;;38.97;16.10;;;;;;;5.61;49.60;95663.91;5078760;28;20158;-82
2022/03/27 02:44:57;;;;;;;41.97;14.13;;;;;;;6.22;49.93;95768.09;5054115;28;20273;-82
2022/03/27 02:47:23;;;;;;;37.77;16.17;;;;;;;5.99;49.51;95739.13;5072179;28;20566;-82
2022/03/27 02:49:48;;;;;;;39.30;17.00;;;;;;;6.04;50.04;95762.16;5072160;28;20166;-82
2022/03/27 02:52:14;;;;;;;32.03;15.10;;;;;;;5.64;50.08;95714.03;5071875;28;20174;-82
2022/03/27 02:54:40;;;;;;;44.33;15.90;;;;;;;5.77;50.44;95746.72;5073441;28;20307;-82
2022/03/27 02:57:05;;;;;;;42.00;16.67;;;;;;;5.98;50.39;95784.50;5072048;28;20177;-81
2022/03/27 02:59:31;;;;;;;33.20;13.33;;;;;;;5.88;50.34;95770.75;5072368;28;20223;-81
2022/03/27 03:01:57;;;;;;;31.37;13.20;;;;;;;5.68;50.48;95741.47;5053439;28;20178;-81
2022/03/27 03:04:22;;;;;;;37.77;14.33;;;;;;;5.40;50.83;95695.66;5070467;28;20180;-81
2022/03/27 03:06:48;;;;;;;31.10;13.97;;;;;;;5.91;50.89;95785.31;5070986;28;20193;-81
2022/03/27 03:09:14;;;;;;;33.03;14.57;;;;;;;5.39;51.12;95717.53;5071366;28;20232;-81
2022/03/27 03:11:40;;;;;;;38.57;15.10;;;;;;;5.75;51.64;95780.84;5072006;28;21158;-82
2022/03/27 03:14:06;;;;;;;32.93;14.13;;;;;;;5.30;51.68;95702.81;5053667;28;20276;-82
2022/03/27 03:16:33;;;;;;;30.70;14.33;;;;;;;5.76;51.92;95794.72;5072368;28;20201;-82
2022/03/27 03:18:58;;;;;;;30.27;13.37;;;;;;;5.66;52.06;95781.78;5071686;28;20163;-82
2022/03/27 03:21:24;;;;;;;23.97;10.00;;;;;;;5.39;51.43;95741.03;5071617;28;20216;-82
2022/03/27 03:23:50;;;;;;;24.70;10.67;;;;;;;5.65;51.79;95782.75;5072131;28;20163;-82
2022/03/27 03:26:15;;;;;;;27.83;11.67;;;;;;;5.60;51.48;95782.41;5053465;28;20585;-82
2022/03/27 03:28:41;;;;;;;27.37;12.53;;;;;;;5.11;51.48;95724.75;5071465;28;20186;-82
2022/03/27 03:31:06;;;;;;;35.03;13.13;;;;;;;4.94;51.57;95697.75;5070192;28;20186;-82
2022/03/27 03:33:32;;;;;;;41.13;13.17;;;;;;;5.45;51.83;95789.22;5070652;28;20178;-82
2022/03/27 03:35:58;;;;;;;37.63;14.53;;;;;;;5.38;51.77;95786.38;5071138;28;20163;-82
2022/03/27 03:38:23;;;;;;;31.10;14.03;;;;;;;5.05;52.08;95742.81;5067419;28;20262;-82
2022/03/27 03:40:49;;;;;;;27.90;14.33;;;;;;;5.32;52.53;95787.00;5070954;28;20638;-83
2022/03/27 03:43:15;;;;;;;31.90;14.60;;;;;;;5.15;52.29;95754.78;5071048;28;20200;-83
2022/03/27 03:45:41;;;;;;;30.73;13.07;;;;;;;5.29;52.26;95779.47;5052598;28;20217;-82
2022/03/27 03:48:07;;;;;;;39.50;15.30;;;;;;;4.83;52.83;95716.28;5052705;28;20170;-82
2022/03/27 03:50:35;;;;;;;44.90;17.07;;;;;;;5.09;53.08;95763.25;5070195;28;20182;-82
2022/03/27 03:53:01;;;;;;;34.23;14.93;;;;;;;4.73;52.93;95710.38;5071310;28;20179;-82
2022/03/27 03:55:26;;;;;;;34.00;14.27;;;;;;;4.85;53.27;95731.75;5053402;28;20178;-83
2022/03/27 03:57:52;;;;;;;36.97;15.90;;;;;;;4.97;53.71;95748.81;5076141;28;20194;-82
2022/03/27 04:00:18;;;;;;;51.47;22.23;;;;;;;4.83;54.14;95734.56;5071348;28;20174;-82
2022/03/27 04:02:43;;;;;;;35.93;16.40;;;;;;;4.87;53.47;95743.69;5071592;28;20641;-83
2022/03/27 04:05:09;;;;;;;62.77;27.73;;;;;;;4.70;54.29;95720.28;5053253;28;20182;-82
2022/03/27 04:07:34;;;;;;;67.43;31.60;;;;;;;4.41;54.48;95676.25;5071491;28;20537;-82
2022/03/27 04:10:00;;;;;;;82.23;30.53;;;;;;;5.15;54.57;95806.16;5077105;28;20219;-82
2022/03/27 04:12:25;;;;;;;73.17;31.30;;;;;;;4.70;54.40;95739.34;5071398;28;20184;-82
2022/03/27 04:14:51;;;;;;;73.93;33.73;;;;;;;4.85;54.32;95771.72;5054623;28;20231;-82
2022/03/27 04:17:16;;;;;;;75.47;32.57;;;;;;;4.70;54.14;95739.34;5074537;28;20177;-82
2022/03/27 04:19:42;;;;;;;97.40;37.93;;;;;;;5.06;54.60;95807.91;5074922;28;20171;-82
2022/03/27 04:22:07;;;;;;;81.30;35.83;;;;;;;4.94;54.26;95794.28;5074857;28;20634;-81
2022/03/27 04:24:33;;;;;;;82.37;34.13;;;;;;;5.10;54.83;95819.66;5074887;28;20182;-81
2022/03/27 04:26:59;;;;;;;77.47;33.87;;;;;;;5.09;54.76;95814.59;5074343;28;20194;-81
2022/03/27 04:29:24;;;;;;;72.73;32.60;;;;;;;5.18;54.75;95822.34;5074909;28;20186;-81
2022/03/27 04:31:51;;;;;;;68.40;30.63;;;;;;;5.17;54.73;95828.53;5074405;28;20214;-82
2022/03/27 04:34:17;;;;;;;80.63;31.10;;;;;;;5.20;54.48;95820.38;5074136;28;20252;-82
2022/03/27 04:36:42;;;;;;;75.63;32.40;;;;;;;4.72;54.07;95741.81;5074791;28;20182;-82
2022/03/27 04:39:08;;;;;;;69.50;30.20;;;;;;;5.31;53.91;95822.72;5056212;28;20719;-82
2022/03/27 04:41:34;;;;;;;63.50;30.03;;;;;;;5.60;53.56;95839.88;5056179;28;20175;-82
2022/03/27 04:44:00;;;;;;;69.90;30.63;;;;;;;5.61;52.18;95784.88;5074092;28;20614;-82
2022/03/27 04:46:25;;;;;;;76.13;28.60;;;;;;;6.16;51.67;95831.44;5074012;28;20271;-82
2022/03/27 04:48:50;;;;;;;71.07;28.50;;;;;;;6.06;50.82;95762.81;5072169;28;20209;-82
2022/03/27 04:51:16;;;;;;;58.73;27.73;;;;;;;6.62;49.87;95808.31;5072962;28;20181;-82
2022/03/27 04:53:42;;;;;;;44.30;20.10;;;;;;;6.94;49.30;95852.81;5072972;28;20615;-82
2022/03/27 04:56:08;;;;;;;74.47;28.90;;;;;;;6.99;48.81;95813.06;5073309;28;20170;-82
2022/03/27 04:58:34;;;;;;;38.57;19.83;;;;;;;7.63;47.81;95856.66;5073800;28;20170;-82
2022/03/27 05:00:59;;;;;;;56.43;24.07;;;;;;;7.71;47.04;95814.69;5073977;28;20550;-82
2022/03/27 05:03:25;;;;;;;59.63;26.17;;;;;;;8.49;46.24;95853.22;5073789;28;20174;-82
2022/03/27 05:05:50;;;;;;;52.00;22.57;;;;;;;9.01;44.75;95853.34;5055804;28;20202;-82
2022/03/27 05:08:16;;;;;;;49.97;19.40;;;;;;;9.16;43.04;95775.44;5074126;28;20171;-82
2022/03/27 05:10:42;;;;;;;49.90;20.00;;;;;;;10.22;41.68;95838.16;5073710;28;20665;-82
2022/03/27 05:13:07;;;;;;;45.03;18.20;;;;;;;11.29;40.22;95857.50;5082232;28;20166;-83
2022/03/27 05:15:34;;;;;;;57.53;21.50;;;;;;;12.37;37.99;95878.91;5074314;28;20908;-83
2022/03/27 05:17:59;;;;;;;76.03;24.10;;;;;;;13.26;35.71;95844.41;5073603;28;20170;-83
2022/03/27 05:20:27;;;;;;;49.27;20.20;;;;;;;14.81;33.37;95868.31;5073515;28;20212;-82
2022/03/27 05:22:55;;;;;;;46.80;19.00;;;;;;;15.78;31.04;95853.81;5073815;28;20174;-83
2022/03/27 05:25:21;;;;;;;42.90;17.85;;;;;;;16.90;29.47;95874.66;5075204;28;20170;-82
2022/03/27 05:27:50;;;;;;;38.72;15.82;;;;;;;17.55;27.97;95836.66;5073074;28;20223;-83
2022/03/27 05:30:16;;;;;;;45.45;18.15;;;;;;;18.29;27.53;95869.81;5073239;28;20171;-83
2022/03/27 05:32:42;;;;;;;30.23;12.25;;;;;;;18.54;26.61;95826.84;5073567;28;20174;-83
2022/03/27 05:35:08;;;;;;;30.17;12.15;;;;;;;19.36;25.74;95876.25;5055203;28;20249;-83
2022/03/27 05:37:41;;;;;;;39.30;15.68;;;;;;;20.09;25.35;95874.50;5073149;28;20178;-83
2022/03/27 05:40:09;;;;;;;43.80;19.95;;;;;;;20.58;24.99;95867.47;5072264;28;20201;-83
2022/03/27 05:42:35;;;;;;;25.13;10.98;;;;;;;20.94;23.10;95837.34;5072099;28;20181;-83
2022/03/27 05:45:02;;;;;;;72.47;14.30;;;;;;;21.85;23.27;95880.31;5072315;28;20249;-83
2022/03/27 05:47:28;;;;;;;83.18;14.23;;;;;;;22.28;22.02;95831.03;5072220;28;20194;-83
2022/03/27 05:49:54;;;;;;;77.22;18.42;;;;;;;22.89;21.31;95837.50;5072184;28;20258;-83
2022/03/27 05:52:20;;;;;;;149.40;28.70;;;;;;;23.53;20.32;95841.66;5071784;28;20198;-84
2022/03/27 05:54:45;;;;;;;1999.90;999.90;;;;;;;23.58;20.37;95836.31;5071971;28;21024;-83
2022/03/27 05:57:11;;;;;;;1999.90;999.90;;;;;;;24.21;19.95;95847.63;5071462;28;20182;-83
2022/03/27 05:59:36;;;;;;;1999.90;999.90;;;;;;;24.39;19.96;95831.66;5071736;28;20175;-83
2022/03/27 06:02:02;;;;;;;1999.90;999.90;;;;;;;25.40;19.66;95886.25;5072066;28;20163;-84
2022/03/27 06:04:27;;;;;;;1999.90;999.90;;;;;;;25.15;18.04;95830.59;5072548;28;20633;-83
2022/03/27 06:06:53;;;;;;;1296.72;288.67;;;;;;;25.26;17.83;95836.69;5072791;28;20186;-84
2022/03/27 06:09:18;;;;;;;1904.45;999.90;;;;;;;25.87;18.37;95886.47;5072184;28;20239;-83
2022/03/27 06:11:44;;;;;;;22.10;14.95;;;;;;;25.64;17.44;95864.81;5072466;28;20178;-84
2022/03/27 06:14:09;;;;;;;22.95;9.90;;;;;;;25.58;17.96;95839.75;5072427;28;20171;-84
2022/03/27 06:16:35;;;;;;;19.15;10.45;;;;;;;25.85;17.79;95856.28;5072911;28;20179;-85
2022/03/27 06:19:00;;;;;;;21.27;11.25;;;;;;;26.50;17.57;95888.38;5072373;28;20249;-84
2022/03/27 06:21:26;;;;;;;23.80;10.32;;;;;;;27.17;17.09;95865.72;5053251;28;20615;-84
2022/03/27 06:23:51;;;;;;;18.88;10.57;;;;;;;27.43;16.19;95885.91;5071402;28;20178;-84
2022/03/27 06:26:17;;;;;;;23.77;11.23;;;;;;;27.49;16.49;95885.88;5071594;28;20576;-84
2022/03/27 06:28:42;;;;;;;23.13;11.52;;;;;;;27.49;16.50;95894.78;5075110;28;20205;-84
2022/03/27 06:31:08;;;;;;;22.38;11.77;;;;;;;27.18;16.52;95851.09;5053508;28;20182;-84
2022/03/27 06:33:33;;;;;;;22.50;10.55;;;;;;;27.43;16.33;95858.88;5053476;28;20243;-84
2022/03/27 06:36:01;;;;;;;19.42;10.20;;;;;;;27.59;16.72;95880.34;5071264;28;20185;-83
2022/03/27 06:38:28;;;;;;;22.25;11.57;;;;;;;27.62;16.97;95877.03;5071969;28;20155;-84
2022/03/27 06:40:55;;;;;;;15.70;9.82;;;;;;;27.57;16.39;95866.28;5074837;28;20174;-81
2022/03/27 06:43:22;;;;;;;18.70;11.68;;;;;;;27.48;16.48;95825.53;5071081;28;20163;-81
2022/03/27 06:45:48;;;;;;;20.50;10.85;;;;;;;27.93;16.19;95883.59;5070702;28;20219;-79
2022/03/27 06:48:14;;;;;;;20.20;11.60;;;;;;;27.07;16.70;95828.00;5071084;28;20178;-81
2022/03/27 06:50:40;;;;;;;22.15;11.23;;;;;;;26.58;17.64;95891.25;5071104;28;20190;-82
2022/03/27 06:53:05;;;;;;;23.83;11.43;;;;;;;25.99;18.31;95898.81;5071922;28;20155;-80
2022/03/27 06:55:32;;;;;;;42.33;12.40;;;;;;;24.99;18.40;95894.53;5071884;28;20258;-79
2022/03/27 06:57:57;;;;;;;18.98;11.38;;;;;;;24.60;19.17;95896.25;5072095;28;20543;-80
2022/03/27 07:03:09;;;;;;;20.17;12.20;;;;;;;23.30;20.47;95859.09;5072140;28;20615;-79
2022/03/27 07:05:43;;;;;;;21.88;11.77;;;;;;;23.41;21.67;95882.25;5070584;28;20178;-82
2022/03/27 07:08:16;;;;;;;24.23;12.60;;;;;;;23.03;20.96;95878.09;5070798;28;20526;-82
2022/03/27 07:10:43;;;;;;;26.92;12.20;;;;;;;22.82;21.88;95898.72;5069969;28;20243;-81
2022/03/27 07:13:10;;;;;;;20.60;12.50;;;;;;;22.66;22.45;95890.81;5070719;28;20269;-80
2022/03/27 07:15:40;;;;;;;26.02;12.25;;;;;;;22.70;22.62;95894.59;5069928;28;20170;-82
2022/03/27 07:18:07;;;;;;;23.02;13.23;;;;;;;22.65;22.70;95859.66;5070393;28;20307;-83
2022/03/27 07:20:35;;;;;;;25.67;13.05;;;;;;;22.47;23.20;95823.34;5070556;28;20174;-81
2022/03/27 07:23:05;;;;;;;24.90;12.00;;;;;;;22.61;23.26;95842.44;5052404;28;20631;-80
2022/03/27 07:25:35;;;;;;;57.65;33.17;;;;;;;22.75;22.42;95887.38;5053097;28;20650;-83
2022/03/27 07:28:02;;;;;;;22.30;12.50;;;;;;;22.56;22.43;95894.25;5070135;28;20219;-82
2022/03/27 07:30:27;;;;;;;28.52;13.35;;;;;;;22.37;22.80;95868.91;5052001;28;20182;-82
2022/03/27 07:32:53;;;;;;;21.75;12.70;;;;;;;22.23;22.69;95879.28;5070662;28;20557;-82
2022/03/27 07:35:19;;;;;;;23.13;12.27;;;;;;;21.94;22.86;95883.34;5070407;28;20225;-83
2022/03/27 07:37:45;;;;;;;19.85;12.82;;;;;;;21.70;24.54;95877.53;5071115;28;20275;-81
2022/03/27 07:40:12;;;;;;;430.02;311.02;;;;;;;21.70;24.84;95874.84;5070818;28;20178;-81
2022/03/27 07:42:40;;;;;;;1999.90;999.90;;;;;;;21.96;25.27;95876.66;5068760;28;20233;-81
2022/03/27 07:45:08;;;;;;;1999.90;999.90;;;;;;;22.15;24.49;95863.66;5071527;28;20181;-83
2022/03/27 07:47:34;;;;;;;1999.90;999.90;;;;;;;22.47;24.25;95869.78;5071195;28;20212;-83
2022/03/27 07:50:00;;;;;;;1999.90;999.90;;;;;;;22.61;22.50;95861.25;5073448;28;20249;-83
2022/03/27 07:52:27;;;;;;;1999.90;999.90;;;;;;;22.38;24.19;95812.31;5074864;28;20178;-83
2022/03/27 07:54:53;;;;;;;1999.90;999.90;;;;;;;22.64;23.68;95823.16;5075048;28;20175;-81
2022/03/27 07:57:20;;;;;;;1999.90;999.90;;;;;;;22.89;23.16;95834.81;5074173;28;20188;-81
2022/03/27 07:59:47;;;;;;;1999.90;999.90;;;;;;;22.40;21.46;95850.41;5073519;28;20235;-82
2022/03/27 08:02:13;;;;;;;904.08;562.03;;;;;;;22.43;22.73;95862.50;5072948;28;20178;-83
2022/03/27 08:04:38;;;;;;;1999.90;963.45;;;;;;;22.62;24.18;95866.34;5055830;28;20616;-83
2022/03/27 08:07:04;;;;;;;1999.90;917.90;;;;;;;22.67;22.44;95844.88;5074818;28;20183;-83
2022/03/27 08:09:29;;;;;;;1999.90;996.72;;;;;;;22.95;22.46;95867.88;5075027;28;20193;-82
2022/03/27 08:11:55;;;;;;;1999.90;999.90;;;;;;;22.89;22.04;95863.56;5074517;28;20170;-81
2022/03/27 08:14:21;;;;;;;56.60;51.75;;;;;;;23.00;21.00;95859.03;5073356;28;20570;-81
2022/03/27 08:16:47;;;;;;;16.75;12.73;;;;;;;23.21;22.09;95853.44;5072091;28;20312;-82
2022/03/27 08:19:12;;;;;;;13.73;8.93;;;;;;;23.31;21.09;95858.84;5056182;28;20201;-80
2022/03/27 08:21:39;;;;;;;17.33;10.45;;;;;;;23.44;22.47;95837.91;5074817;28;20178;-82
2022/03/27 08:24:05;;;;;;;13.07;10.50;;;;;;;23.57;21.59;95832.81;5074811;28;20155;-82
2022/03/27 08:29:15;;;;;;;25.48;9.20;;;;;;;23.03;21.30;95827.06;5073250;28;20221;-81
2022/03/27 08:31:40;;;;;;;15.20;8.23;;;;;;;22.88;20.70;95795.59;5072724;28;20175;-81
2022/03/27 08:34:06;;;;;;;20.02;8.57;;;;;;;22.70;20.46;95832.81;5073535;28;20721;-81
2022/03/27 08:36:32;;;;;;;18.58;8.25;;;;;;;22.26;22.81;95802.84;5074148;28;20697;-82
2022/03/27 08:38:57;;;;;;;15.65;8.30;;;;;;;22.49;21.99;95848.84;5074292;28;20170;-81
2022/03/27 08:41:23;;;;;;;239.10;44.60;;;;;;;22.01;20.99;95815.03;5074010;28;20315;-81
2022/03/27 08:43:58;;;;;;;15.05;8.27;;;;;;;21.79;23.36;95838.47;5073503;28;20170;-82
2022/03/27 08:46:28;;;;;;;15.13;8.02;;;;;;;22.08;23.25;95833.59;5073219;28;20194;-84
2022/03/27 08:48:58;;;;;;;12.27;8.60;;;;;;;22.13;23.44;95782.66;5055018;28;20174;-80
2022/03/27 08:51:47;;;;;;;17.35;9.93;;;;;;;22.71;22.04;95831.75;5073721;28;20174;-82
2022/03/27 08:54:16;;;;;;;28.67;10.98;;;;;;;22.78;21.88;95838.53;5054113;28;20662;-81
2022/03/27 08:56:47;;;;;;;25.33;9.75;;;;;;;22.26;21.67;95817.06;5072127;28;20174;-82
2022/03/27 08:59:13;;;;;;;19.63;10.52;;;;;;;22.05;21.36;95831.44;5074735;28;20220;-82
2022/03/27 09:01:39;;;;;;;18.42;10.48;;;;;;;22.02;21.52;95826.56;5071940;28;20547;-82
2022/03/27 09:04:05;;;;;;;23.95;10.32;;;;;;;21.46;22.34;95778.69;5073299;28;20166;-82
2022/03/27 09:06:30;;;;;;;20.00;9.48;;;;;;;21.50;22.83;95787.03;5072330;28;20209;-82
2022/03/27 09:08:56;;;;;;;18.52;10.30;;;;;;;21.86;21.81;95830.19;5072728;28;20182;-83
2022/03/27 09:11:25;;;;;;;16.35;10.30;;;;;;;21.59;22.64;95790.84;5072838;28;20240;-81
2022/03/27 09:13:52;;;;;;;19.58;10.98;;;;;;;21.75;21.25;95837.34;5072500;28;20232;-81
2022/03/27 09:16:19;;;;;;;28.63;10.80;;;;;;;21.60;22.93;95846.09;5072831;28;20213;-81
2022/03/27 09:18:58;;;;;;;17.35;9.43;;;;;;;21.55;21.88;95846.03;5070056;28;20189;-85
2022/03/27 09:21:26;;;;;;;26.23;9.57;;;;;;;21.58;22.38;95815.22;5054583;28;20232;-83
2022/03/27 09:24:01;;;;;;;18.40;9.35;;;;;;;21.60;22.17;95830.00;5054548;28;20194;-85
2022/03/27 09:26:28;;;;;;;14.88;9.38;;;;;;;21.37;21.92;95833.00;5072067;28;20197;-81
2022/03/27 09:29:05;;;;;;;18.20;9.48;;;;;;;21.22;22.32;95828.31;5072554;28;20651;-81
2022/03/27 09:31:31;;;;;;;27.52;10.75;;;;;;;20.53;22.37;95763.84;5072354;28;20166;-82
2022/03/27 09:34:03;;;;;;;25.13;10.10;;;;;;;20.80;22.42;95811.25;5073064;28;20287;-81
2022/03/27 09:36:42;;;;;;;21.88;8.65;;;;;;;20.82;22.96;95822.50;5072743;28;20170;-81
2022/03/27 09:39:15;;;;;;;24.15;9.68;;;;;;;20.82;23.35;95819.84;5070986;28;20243;-83
2022/03/27 09:41:59;;;;;;;25.02;10.15;;;;;;;20.65;22.69;95806.53;5071058;28;20227;-83
2022/03/27 09:44:34;;;;;;;30.35;10.75;;;;;;;20.75;22.84;95816.53;5071187;28;20657;-80
2022/03/27 09:47:04;;;;;;;18.15;9.98;;;;;;;20.71;22.32;95822.41;5051342;28;20201;-81
2022/03/27 09:49:35;;;;;;;23.27;11.27;;;;;;;20.62;22.24;95812.38;5072172;28;20175;-81
2022/03/27 09:52:08;;;;;;;18.50;9.02;;;;;;;20.53;23.15;95813.88;5071547;28;20181;-82
2022/03/27 09:54:46;;;;;;;19.35;9.77;;;;;;;20.51;22.43;95816.78;5071705;28;20162;-81
2022/03/27 09:57:23;;;;;;;13.93;8.63;;;;;;;20.17;23.91;95748.41;5070930;28;20155;-83
2022/03/27 09:59:49;;;;;;;15.63;8.98;;;;;;;20.30;21.76;95774.78;5071348;28;20162;-83
2022/03/27 10:02:20;;;;;;;14.30;7.60;;;;;;;20.46;22.79;95792.66;5053558;28;20265;-82
2022/03/27 10:04:52;;;;;;;16.73;8.35;;;;;;;20.51;22.73;95795.38;5071411;28;20261;-83
2022/03/27 10:07:18;;;;;;;11.93;7.35;;;;;;;20.51;21.96;95795.38;5071213;28;20596;-84
2022/03/27 10:09:44;;;;;;;19.38;8.23;;;;;;;20.23;22.51;95736.72;5070310;28;20174;-82
2022/03/27 10:12:11;;;;;;;11.85;6.90;;;;;;;20.32;21.44;95760.09;5071300;28;20167;-82
2022/03/27 10:14:37;;;;;;;15.35;7.38;;;;;;;20.45;21.88;95780.34;5053982;28;20201;-82
2022/03/27 10:17:05;;;;;;;11.75;6.78;;;;;;;20.26;20.96;95745.03;5066464;28;20543;-82
2022/03/27 10:19:38;;;;;;;16.92;7.07;;;;;;;20.47;22.36;95780.09;5068829;28;20187;-82
2022/03/27 10:22:05;;;;;;;10.95;6.03;;;;;;;20.52;22.27;95778.28;5067701;28;20552;-82
2022/03/27 10:24:32;;;;;;;17.50;6.38;;;;;;;20.52;21.10;95764.91;5065528;28;20261;-81
2022/03/27 10:27:01;;;;;;;19.13;7.47;;;;;;;20.62;23.22;95766.88;5069831;28;20190;-82
2022/03/27 10:29:27;;;;;;;19.65;7.63;;;;;;;20.68;22.56;95769.34;5051355;28;20572;-81
2022/03/27 10:31:53;;;;;;;13.23;7.28;;;;;;;20.68;22.08;95772.03;5053472;28;20620;-84
2022/03/27 10:34:20;;;;;;;12.35;6.70;;;;;;;20.34;22.07;95720.56;5070976;28;20298;-85
2022/03/27 10:36:58;;;;;;;10.38;6.32;;;;;;;20.51;21.25;95763.28;5052105;28;20634;-84
2022/03/27 10:39:43;;;;;;;13.80;7.03;;;;;;;20.39;21.85;95759.13;5072242;28;20668;-84
2022/03/27 10:42:15;;;;;;;18.08;7.38;;;;;;;20.33;21.43;95766.25;5072521;28;20192;-85
2022/03/27 10:44:55;;;;;;;12.05;6.38;;;;;;;20.27;21.55;95748.53;5072675;28;20174;-86
2022/03/27 10:47:25;;;;;;;12.15;7.00;;;;;;;20.27;22.39;95754.69;5072040;28;20689;-86
2022/03/27 10:50:00;;;;;;;19.27;8.25;;;;;;;20.22;21.29;95753.81;5053652;28;20198;-86
2022/03/27 10:52:26;;;;;;;12.70;6.55;;;;;;;20.12;21.93;95753.69;5071628;28;20177;-87
2022/03/27 10:55:07;;;;;;;9.43;6.03;;;;;;;19.70;22.06;95675.91;5053858;28;20217;-87
2022/03/27 10:57:35;;;;;;;16.88;7.05;;;;;;;19.79;22.57;95701.94;5053738;28;20166;-85
2022/03/27 11:00:04;;;;;;;14.25;7.03;;;;;;;19.72;21.49;95673.81;5072439;28;20258;-86
2022/03/27 11:02:49;;;;;;;10.95;6.32;;;;;;;20.16;22.37;95750.25;5054014;28;20244;-86
2022/03/27 11:05:35;;;;;;;13.07;6.55;;;;;;;20.15;22.01;95745.19;5053780;28;20211;-86
2022/03/27 11:08:18;;;;;;;14.13;7.28;;;;;;;20.19;22.72;95738.25;5060944;28;20222;-86
2022/03/27 11:10:49;;;;;;;12.30;7.00;;;;;;;20.27;22.17;95724.44;5053750;28;20171;-86
2022/03/27 11:13:27;;;;;;;17.65;7.25;;;;;;;20.30;22.42;95732.00;5071739;28;20594;-86
2022/03/27 11:16:12;;;;;;;14.93;7.30;;;;;;;20.31;21.81;95718.38;5072250;28;20562;-87
2022/03/27 11:18:43;;;;;;;12.55;7.15;;;;;;;20.36;21.84;95714.97;5072920;28;20731;-85
2022/03/27 11:21:13;;;;;;;16.08;7.35;;;;;;;20.37;21.16;95729.97;5071115;28;20182;-85
2022/03/27 11:23:40;;;;;;;18.90;8.88;;;;;;;19.66;22.24;95610.66;5048887;28;20186;-84
2022/03/27 11:26:27;;;;;;;14.48;8.50;;;;;;;20.18;22.30;95693.84;5074238;28;20201;-84
2022/03/27 11:29:05;;;;;;;22.45;10.85;;;;;;;20.11;22.21;95672.66;5060200;28;20229;-84
2022/03/27 11:31:37;;;;;;;23.33;11.07;;;;;;;19.95;22.53;95642.28;5056607;28;20177;-85
2022/03/27 11:34:08;;;;;;;20.95;10.73;;;;;;;20.34;22.29;95709.03;5056416;28;20220;-84